sensor_id;sensor_type;location;lat;lon;timestamp;pressure;altitude;pressure_sealevel;temperature;humidity
60345;BME280;46188;52.324;8.032;2023-09-07T00:00:58;101018.63;;;19.46;96.58
60345;BME280;46188;52.324;8.032;2023-09-07T00:03:23;101011.53;;;19.45;96.93
60345;BME280;46188;52.324;8.032;2023-09-07T00:05:49;101015.13;;;19.42;97.09
60345;BME280;46188;52.324;8.032;2023-09-07T00:08:14;101010.75;;;19.38;97.30
60345;BME280;46188;52.324;8.032;2023-09-07T00:10:39;101003.63;;;19.37;97.33
60345;BME280;46188;52.324;8.032;2023-09-07T00:13:04;101008.16;;;19.33;97.31
60345;BME280;46188;52.324;8.032;2023-09-07T00:15:39;101010.88;;;19.29;97.25
60345;BME280;46188;52.324;8.032;2023-09-07T00:18:04;101002.09;;;19.22;97.77
60345;BME280;46188;52.324;8.032;2023-09-07T00:20:29;101007.50;;;19.17;98.08
60345;BME280;46188;52.324;8.032;2023-09-07T00:22:55;101013.00;;;19.08;98.96
60345;BME280;46188;52.324;8.032;2023-09-07T00:25:21;101004.16;;;19.03;99.06
60345;BME280;46188;52.324;8.032;2023-09-07T00:27:46;101005.13;;;18.97;99.54
60345;BME280;46188;52.324;8.032;2023-09-07T00:30:12;101006.00;;;18.98;99.79
60345;BME280;46188;52.324;8.032;2023-09-07T00:32:38;101006.97;;;18.94;99.97
60345;BME280;46188;52.324;8.032;2023-09-07T00:35:04;101010.59;;;18.90;100.00
60345;BME280;46188;52.324;8.032;2023-09-07T00:37:30;101011.56;;;18.86;100.00
60345;BME280;46188;52.324;8.032;2023-09-07T00:39:55;101000.94;;;18.78;100.00
60345;BME280;46188;52.324;8.032;2023-09-07T00:42:21;101007.22;;;18.75;100.00
60345;BME280;46188;52.324;8.032;2023-09-07T00:44:46;101002.81;;;18.71;100.00
60345;BME280;46188;52.324;8.032;2023-09-07T00:47:13;100998.44;;;18.67;100.00
60345;BME280;46188;52.324;8.032;2023-09-07T00:49:39;100996.69;;;18.63;100.00
60345;BME280;46188;52.324;8.032;2023-09-07T00:52:05;101001.19;;;18.61;100.00
60345;BME280;46188;52.324;8.032;2023-09-07T00:54:31;100997.69;;;18.56;100.00
60345;BME280;46188;52.324;8.032;2023-09-07T00:56:56;100995.13;;;18.47;100.00
60345;BME280;46188;52.324;8.032;2023-09-07T00:59:23;101001.38;;;18.49;100.00
60345;BME280;46188;52.324;8.032;2023-09-07T01:01:48;100996.09;;;18.42;100.00
60345;BME280;46188;52.324;8.032;2023-09-07T01:04:14;100997.00;;;18.40;100.00
60345;BME280;46188;52.324;8.032;2023-09-07T01:06:45;100997.94;;;18.39;100.00
60345;BME280;46188;52.324;8.032;2023-09-07T01:09:14;100997.09;;;18.34;100.00
60345;BME280;46188;52.324;8.032;2023-09-07T01:11:42;100998.03;;;18.31;100.00
60345;BME280;46188;52.324;8.032;2023-09-07T01:14:07;100993.59;;;18.27;100.00
60345;BME280;46188;52.324;8.032;2023-09-07T01:16:33;100993.66;;;18.25;100.00
60345;BME280;46188;52.324;8.032;2023-09-07T01:19:05;100995.41;;;18.25;100.00
60345;BME280;46188;52.324;8.032;2023-09-07T01:21:34;100991.91;;;18.20;100.00
60345;BME280;46188;52.324;8.032;2023-09-07T01:24:01;100990.19;;;18.17;100.00
60345;BME280;46188;52.324;8.032;2023-09-07T01:26:27;100992.91;;;18.13;100.00
60345;BME280;46188;52.324;8.032;2023-09-07T01:28:53;100992.00;;;18.12;100.00
60345;BME280;46188;52.324;8.032;2023-09-07T01:31:18;100986.72;;;18.09;100.00
60345;BME280;46188;52.324;8.032;2023-09-07T01:33:43;100989.44;;;18.06;100.00
60345;BME280;46188;52.324;8.032;2023-09-07T01:36:09;100986.81;;;18.01;100.00
60345;BME280;46188;52.324;8.032;2023-09-07T01:38:34;100984.19;;;17.95;100.00
60345;BME280;46188;52.324;8.032;2023-09-07T01:41:00;100987.84;;;17.88;100.00
60345;BME280;46188;52.324;8.032;2023-09-07T01:43:25;100982.53;;;17.82;100.00
60345;BME280;46188;52.324;8.032;2023-09-07T01:45:51;100976.38;;;17.75;100.00
60345;BME280;46188;52.324;8.032;2023-09-07T01:48:16;100969.34;;;17.71;100.00
60345;BME280;46188;52.324;8.032;2023-09-07T01:50:41;100970.25;;;17.65;100.00
60345;BME280;46188;52.324;8.032;2023-09-07T01:53:06;100977.41;;;17.63;100.00
60345;BME280;46188;52.324;8.032;2023-09-07T01:55:32;100972.03;;;17.69;100.00
60345;BME280;46188;52.324;8.032;2023-09-07T01:57:58;100972.03;;;17.66;100.00
60345;BME280;46188;52.324;8.032;2023-09-07T02:00:23;100976.53;;;17.61;100.00
60345;BME280;46188;52.324;8.032;2023-09-07T02:02:48;100974.81;;;17.56;100.00
60345;BME280;46188;52.324;8.032;2023-09-07T02:05:14;100984.56;;;17.58;100.00
60345;BME280;46188;52.324;8.032;2023-09-07T02:07:39;100976.59;;;17.57;100.00
60345;BME280;46188;52.324;8.032;2023-09-07T02:10:05;100981.94;;;17.53;100.00
60345;BME280;46188;52.324;8.032;2023-09-07T02:12:30;100985.56;;;17.49;100.00
60345;BME280;46188;52.324;8.032;2023-09-07T02:14:56;100990.00;;;17.47;100.00
60345;BME280;46188;52.324;8.032;2023-09-07T02:17:21;100980.28;;;17.43;100.00
60345;BME280;46188;52.324;8.032;2023-09-07T02:19:46;100981.19;;;17.38;100.00
60345;BME280;46188;52.324;8.032;2023-09-07T02:22:12;100984.81;;;17.30;100.00
60345;BME280;46188;52.324;8.032;2023-09-07T02:24:37;100983.97;;;17.27;100.00
60345;BME280;46188;52.324;8.032;2023-09-07T02:27:02;100979.53;;;17.24;100.00
60345;BME280;46188;52.324;8.032;2023-09-07T02:29:28;100977.78;;;17.22;100.00
60345;BME280;46188;52.324;8.032;2023-09-07T02:31:53;100982.25;;;17.18;100.00
60345;BME280;46188;52.324;8.032;2023-09-07T02:34:18;100986.69;;;17.16;100.00
60345;BME280;46188;52.324;8.032;2023-09-07T02:36:44;100978.78;;;17.11;100.00
60345;BME280;46188;52.324;8.032;2023-09-07T02:39:09;100986.78;;;17.08;100.00
60345;BME280;46188;52.324;8.032;2023-09-07T02:41:36;100975.28;;;17.05;100.00
60345;BME280;46188;52.324;8.032;2023-09-07T02:44:01;100976.13;;;17.07;100.00
60345;BME280;46188;52.324;8.032;2023-09-07T02:46:28;100981.47;;;17.04;100.00
60345;BME280;46188;52.324;8.032;2023-09-07T02:48:53;100977.97;;;17.00;100.00
60345;BME280;46188;52.324;8.032;2023-09-07T02:51:22;100977.03;;;17.03;100.00
60345;BME280;46188;52.324;8.032;2023-09-07T02:53:47;100965.47;;;17.07;100.00
60345;BME280;46188;52.324;8.032;2023-09-07T02:56:13;100974.34;;;17.09;100.00
60345;BME280;46188;52.324;8.032;2023-09-07T02:58:38;100969.94;;;17.06;100.00
60345;BME280;46188;52.324;8.032;2023-09-07T03:01:06;100962.81;;;17.05;100.00
60345;BME280;46188;52.324;8.032;2023-09-07T03:03:34;100963.75;;;17.00;100.00
60345;BME280;46188;52.324;8.032;2023-09-07T03:06:07;100971.81;;;16.92;100.00
60345;BME280;46188;52.324;8.032;2023-09-07T03:08:33;100975.34;;;16.92;100.00
60345;BME280;46188;52.324;8.032;2023-09-07T03:10:58;100978.03;;;16.89;100.00
60345;BME280;46188;52.324;8.032;2023-09-07T03:13:23;100967.41;;;16.83;100.00
60345;BME280;46188;52.324;8.032;2023-09-07T03:15:53;100968.28;;;16.82;100.00
60345;BME280;46188;52.324;8.032;2023-09-07T03:18:18;100971.81;;;16.84;100.00
60345;BME280;46188;52.324;8.032;2023-09-07T03:20:43;100974.50;;;16.81;100.00
60345;BME280;46188;52.324;8.032;2023-09-07T03:23:09;100974.50;;;16.79;100.00
60345;BME280;46188;52.324;8.032;2023-09-07T03:25:34;100978.97;;;16.74;100.00
60345;BME280;46188;52.324;8.032;2023-09-07T03:27:59;100976.34;;;16.70;100.00
60345;BME280;46188;52.324;8.032;2023-09-07T03:30:24;100982.59;;;16.67;100.00
60345;BME280;46188;52.324;8.032;2023-09-07T03:32:50;100984.38;;;16.67;100.00
60345;BME280;46188;52.324;8.032;2023-09-07T03:35:15;100980.81;;;16.61;100.00
60345;BME280;46188;52.324;8.032;2023-09-07T03:37:42;100981.72;;;16.60;100.00
60345;BME280;46188;52.324;8.032;2023-09-07T03:40:08;100983.47;;;16.61;100.00
60345;BME280;46188;52.324;8.032;2023-09-07T03:42:34;100986.13;;;16.63;100.00
60345;BME280;46188;52.324;8.032;2023-09-07T03:44:59;100981.72;;;16.64;100.00
60345;BME280;46188;52.324;8.032;2023-09-07T03:47:25;100987.03;;;16.64;100.00
60345;BME280;46188;52.324;8.032;2023-09-07T03:49:54;100987.94;;;16.58;100.00
60345;BME280;46188;52.324;8.032;2023-09-07T03:52:19;100987.94;;;16.59;100.00
60345;BME280;46188;52.324;8.032;2023-09-07T03:54:47;100987.06;;;16.57;100.00
60345;BME280;46188;52.324;8.032;2023-09-07T03:57:12;100990.63;;;16.56;100.00
60345;BME280;46188;52.324;8.032;2023-09-07T03:59:37;100986.22;;;16.49;100.00
60345;BME280;46188;52.324;8.032;2023-09-07T04:02:03;100990.69;;;16.44;100.00
60345;BME280;46188;52.324;8.032;2023-09-07T04:04:28;100988.03;;;16.44;100.00
60345;BME280;46188;52.324;8.032;2023-09-07T04:06:53;100986.22;;;16.48;100.00
60345;BME280;46188;52.324;8.032;2023-09-07T04:09:19;100981.78;;;16.47;100.00
60345;BME280;46188;52.324;8.032;2023-09-07T04:11:44;100982.72;;;16.42;100.00
60345;BME280;46188;52.324;8.032;2023-09-07T04:14:09;100987.16;;;16.37;100.00
60345;BME280;46188;52.324;8.032;2023-09-07T04:16:34;100983.66;;;16.34;100.00
60345;BME280;46188;52.324;8.032;2023-09-07T04:18:59;100985.44;;;16.29;100.00
60345;BME280;46188;52.324;8.032;2023-09-07T04:21:25;100978.34;;;16.31;100.00
60345;BME280;46188;52.324;8.032;2023-09-07T04:23:50;100981.88;;;16.31;100.00
60345;BME280;46188;52.324;8.032;2023-09-07T04:26:15;100988.13;;;16.27;100.00
60345;BME280;46188;52.324;8.032;2023-09-07T04:28:40;100974.81;;;16.26;100.00
60345;BME280;46188;52.324;8.032;2023-09-07T04:31:06;100974.81;;;16.22;100.00
60345;BME280;46188;52.324;8.032;2023-09-07T04:33:32;100985.47;;;16.22;100.00
60345;BME280;46188;52.324;8.032;2023-09-07T04:38:33;100986.34;;;16.20;100.00
60345;BME280;46188;52.324;8.032;2023-09-07T04:41:09;100991.66;;;16.17;100.00
60345;BME280;46188;52.324;8.032;2023-09-07T04:43:35;100983.69;;;16.18;100.00
60345;BME280;46188;52.324;8.032;2023-09-07T04:46:00;100983.72;;;16.15;100.00
60345;BME280;46188;52.324;8.032;2023-09-07T04:48:26;100988.16;;;16.15;100.00
60345;BME280;46188;52.324;8.032;2023-09-07T04:50:58;100989.06;;;16.11;100.00
60345;BME280;46188;52.324;8.032;2023-09-07T04:53:24;100989.06;;;16.04;100.00
60345;BME280;46188;52.324;8.032;2023-09-07T04:55:49;100989.94;;;16.02;100.00
60345;BME280;46188;52.324;8.032;2023-09-07T04:58:14;100989.94;;;16.03;100.00
60345;BME280;46188;52.324;8.032;2023-09-07T05:00:40;100991.75;;;15.97;100.00
60345;BME280;46188;52.324;8.032;2023-09-07T05:03:05;100990.88;;;15.95;100.00
60345;BME280;46188;52.324;8.032;2023-09-07T05:05:30;100983.81;;;15.94;100.00
60345;BME280;46188;52.324;8.032;2023-09-07T05:07:55;100986.47;;;15.88;100.00
60345;BME280;46188;52.324;8.032;2023-09-07T05:10:21;100994.44;;;15.89;100.00
60345;BME280;46188;52.324;8.032;2023-09-07T05:12:46;100988.25;;;15.84;100.00
60345;BME280;46188;52.324;8.032;2023-09-07T05:15:12;100993.56;;;15.78;100.00
60345;BME280;46188;52.324;8.032;2023-09-07T05:17:37;100988.22;;;15.73;100.00
60345;BME280;46188;52.324;8.032;2023-09-07T05:20:03;100992.66;;;15.71;100.00
60345;BME280;46188;52.324;8.032;2023-09-07T05:22:28;100994.47;;;15.67;100.00
60345;BME280;46188;52.324;8.032;2023-09-07T05:24:54;100998.00;;;15.68;100.00
60345;BME280;46188;52.324;8.032;2023-09-07T05:27:19;100994.47;;;15.66;100.00
60345;BME280;46188;52.324;8.032;2023-09-07T05:29:44;100993.56;;;15.65;100.00
60345;BME280;46188;52.324;8.032;2023-09-07T05:32:10;100990.03;;;15.62;100.00
60345;BME280;46188;52.324;8.032;2023-09-07T05:34:35;100995.34;;;15.60;100.00
60345;BME280;46188;52.324;8.032;2023-09-07T05:37:00;100995.34;;;15.65;100.00
60345;BME280;46188;52.324;8.032;2023-09-07T05:39:25;100986.47;;;15.67;100.00
60345;BME280;46188;52.324;8.032;2023-09-07T05:41:51;100991.81;;;15.67;100.00
60345;BME280;46188;52.324;8.032;2023-09-07T05:44:16;100996.22;;;15.64;100.00
60345;BME280;46188;52.324;8.032;2023-09-07T05:46:41;100990.88;;;15.67;100.00
60345;BME280;46188;52.324;8.032;2023-09-07T05:49:06;100997.13;;;15.69;100.00
60345;BME280;46188;52.324;8.032;2023-09-07T05:51:32;100994.47;;;15.69;100.00
60345;BME280;46188;52.324;8.032;2023-09-07T05:53:58;100996.22;;;15.70;100.00
60345;BME280;46188;52.324;8.032;2023-09-07T05:56:23;101002.41;;;15.72;100.00
60345;BME280;46188;52.324;8.032;2023-09-07T05:58:48;100998.88;;;15.73;100.00
60345;BME280;46188;52.324;8.032;2023-09-07T06:01:13;101008.66;;;15.79;100.00
60345;BME280;46188;52.324;8.032;2023-09-07T06:03:39;101017.50;;;15.82;100.00
60345;BME280;46188;52.324;8.032;2023-09-07T06:06:04;101010.41;;;15.80;100.00
60345;BME280;46188;52.324;8.032;2023-09-07T06:08:29;101010.41;;;15.81;100.00
60345;BME280;46188;52.324;8.032;2023-09-07T06:10:55;101011.28;;;15.85;100.00
60345;BME280;46188;52.324;8.032;2023-09-07T06:13:20;101016.59;;;15.91;100.00
60345;BME280;46188;52.324;8.032;2023-09-07T06:15:45;101023.69;;;15.94;100.00
60345;BME280;46188;52.324;8.032;2023-09-07T06:18:11;101024.56;;;15.99;100.00
60345;BME280;46188;52.324;8.032;2023-09-07T06:20:36;101021.00;;;16.01;100.00
60345;BME280;46188;52.324;8.032;2023-09-07T06:23:01;101018.31;;;16.06;100.00
60345;BME280;46188;52.324;8.032;2023-09-07T06:25:27;101019.19;;;16.08;100.00
60345;BME280;46188;52.324;8.032;2023-09-07T06:27:52;101013.88;;;16.13;100.00
60345;BME280;46188;52.324;8.032;2023-09-07T06:30:18;101012.94;;;16.17;100.00
60345;BME280;46188;52.324;8.032;2023-09-07T06:32:43;101016.50;;;16.23;100.00
60345;BME280;46188;52.324;8.032;2023-09-07T06:35:08;101020.00;;;16.32;100.00
60345;BME280;46188;52.324;8.032;2023-09-07T06:37:35;101017.31;;;16.38;100.00
60345;BME280;46188;52.324;8.032;2023-09-07T06:40:01;101021.69;;;16.47;100.00
60345;BME280;46188;52.324;8.032;2023-09-07T06:42:28;101022.59;;;16.53;100.00
60345;BME280;46188;52.324;8.032;2023-09-07T06:44:55;101017.22;;;16.61;100.00
60345;BME280;46188;52.324;8.032;2023-09-07T06:47:20;101011.88;;;16.67;100.00
60345;BME280;46188;52.324;8.032;2023-09-07T06:49:45;101016.22;;;16.79;100.00
60345;BME280;46188;52.324;8.032;2023-09-07T06:52:10;101018.88;;;16.87;100.00
60345;BME280;46188;52.324;8.032;2023-09-07T06:54:36;101019.72;;;16.96;100.00
60345;BME280;46188;52.324;8.032;2023-09-07T06:57:01;101024.94;;;17.07;100.00
60345;BME280;46188;52.324;8.032;2023-09-07T06:59:26;101029.31;;;17.18;100.00
60345;BME280;46188;52.324;8.032;2023-09-07T07:01:52;101022.13;;;17.27;100.00
60345;BME280;46188;52.324;8.032;2023-09-07T07:04:17;101026.53;;;17.36;100.00
60345;BME280;46188;52.324;8.032;2023-09-07T07:06:42;101029.09;;;17.45;100.00
60345;BME280;46188;52.324;8.032;2023-09-07T07:09:07;101023.72;;;17.55;100.00
60345;BME280;46188;52.324;8.032;2023-09-07T07:11:34;101028.03;;;17.66;100.00
60345;BME280;46188;52.324;8.032;2023-09-07T07:13:59;101034.19;;;17.75;100.00
60345;BME280;46188;52.324;8.032;2023-09-07T07:16:24;101037.63;;;17.86;100.00
60345;BME280;46188;52.324;8.032;2023-09-07T07:18:50;101033.00;;;18.05;100.00
60345;BME280;46188;52.324;8.032;2023-09-07T07:21:15;101028.38;;;18.24;100.00
60345;BME280;46188;52.324;8.032;2023-09-07T07:23:40;101034.38;;;18.40;100.00
60345;BME280;46188;52.324;8.032;2023-09-07T07:26:05;101028.94;;;18.48;100.00
60345;BME280;46188;52.324;8.032;2023-09-07T07:28:31;101028.78;;;18.60;100.00
60345;BME280;46188;52.324;8.032;2023-09-07T07:30:56;101031.31;;;18.72;100.00
60345;BME280;46188;52.324;8.032;2023-09-07T07:33:21;101024.94;;;18.81;100.00
60345;BME280;46188;52.324;8.032;2023-09-07T07:35:47;101020.25;;;19.00;100.00
60345;BME280;46188;52.324;8.032;2023-09-07T07:38:13;101028.94;;;19.14;100.00
60345;BME280;46188;52.324;8.032;2023-09-07T07:40:39;101025.19;;;19.25;100.00
60345;BME280;46188;52.324;8.032;2023-09-07T07:43:05;101030.31;;;19.40;100.00
60345;BME280;46188;52.324;8.032;2023-09-07T07:45:31;101038.78;;;19.65;100.00
60345;BME280;46188;52.324;8.032;2023-09-07T07:48:01;101035.88;;;19.81;100.00
60345;BME280;46188;52.324;8.032;2023-09-07T07:50:27;101032.06;;;19.92;100.00
60345;BME280;46188;52.324;8.032;2023-09-07T07:52:52;101036.31;;;20.06;100.00
60345;BME280;46188;52.324;8.032;2023-09-07T07:55:17;101042.31;;;20.17;100.00
60345;BME280;46188;52.324;8.032;2023-09-07T07:57:42;101041.94;;;20.37;100.00
60345;BME280;46188;52.324;8.032;2023-09-07T08:00:08;101037.06;;;20.56;100.00
60345;BME280;46188;52.324;8.032;2023-09-07T08:02:34;101038.34;;;20.82;100.00
60345;BME280;46188;52.324;8.032;2023-09-07T08:04:59;101048.44;;;21.08;100.00
60345;BME280;46188;52.324;8.032;2023-09-07T08:07:24;101045.22;;;21.30;98.30
60345;BME280;46188;52.324;8.032;2023-09-07T08:09:51;101054.66;;;21.48;96.60
60345;BME280;46188;52.324;8.032;2023-09-07T08:12:17;101050.59;;;21.67;93.78
60345;BME280;46188;52.324;8.032;2023-09-07T08:14:42;101046.53;;;21.87;91.03
60345;BME280;46188;52.324;8.032;2023-09-07T08:17:08;101044.00;;;22.14;88.74
60345;BME280;46188;52.324;8.032;2023-09-07T08:19:33;101044.50;;;22.28;87.25
60345;BME280;46188;52.324;8.032;2023-09-07T08:21:58;101032.34;;;22.47;85.20
60345;BME280;46188;52.324;8.032;2023-09-07T08:24:24;101038.91;;;22.67;83.39
60345;BME280;46188;52.324;8.032;2023-09-07T08:26:49;101032.22;;;22.80;82.52
60345;BME280;46188;52.324;8.032;2023-09-07T08:29:19;101031.63;;;23.00;82.28
60345;BME280;46188;52.324;8.032;2023-09-07T08:31:45;101029.50;;;23.10;82.52
60345;BME280;46188;52.324;8.032;2023-09-07T08:34:13;101039.84;;;23.24;81.31
60345;BME280;46188;52.324;8.032;2023-09-07T08:36:39;101030.34;;;23.40;79.06
60345;BME280;46188;52.324;8.032;2023-09-07T08:39:04;101030.88;;;23.52;78.15
60345;BME280;46188;52.324;8.032;2023-09-07T08:41:39;101032.88;;;23.72;77.33
60345;BME280;46188;52.324;8.032;2023-09-07T08:44:09;101030.94;;;23.75;76.62
60345;BME280;46188;52.324;8.032;2023-09-07T08:46:36;101037.41;;;23.97;75.97
60345;BME280;46188;52.324;8.032;2023-09-07T08:49:02;101039.00;;;24.02;76.07
60345;BME280;46188;52.324;8.032;2023-09-07T08:51:30;101034.09;;;24.13;75.02
60345;BME280;46188;52.324;8.032;2023-09-07T08:54:00;101030.94;;;24.26;75.14
60345;BME280;46188;52.324;8.032;2023-09-07T08:56:25;101025.13;;;24.38;75.33
60345;BME280;46188;52.324;8.032;2023-09-07T08:58:50;101032.03;;;24.45;74.72
60345;BME280;46188;52.324;8.032;2023-09-07T09:01:16;101032.59;;;24.54;73.80
60345;BME280;46188;52.324;8.032;2023-09-07T09:03:42;101029.66;;;24.61;73.16
60345;BME280;46188;52.324;8.032;2023-09-07T09:06:08;101032.41;;;24.60;72.54
60345;BME280;46188;52.324;8.032;2023-09-07T09:08:47;101029.28;;;24.71;71.36
60345;BME280;46188;52.324;8.032;2023-09-07T09:11:16;101030.75;;;24.79;72.05
60345;BME280;46188;52.324;8.032;2023-09-07T09:13:42;101030.38;;;24.89;71.91
60345;BME280;46188;52.324;8.032;2023-09-07T09:16:09;101033.59;;;24.98;70.50
60345;BME280;46188;52.324;8.032;2023-09-07T09:18:34;101034.84;;;25.12;69.78
60345;BME280;46188;52.324;8.032;2023-09-07T09:20:59;101040.41;;;25.31;70.54
60345;BME280;46188;52.324;8.032;2023-09-07T09:23:33;101036.06;;;25.49;70.47
60345;BME280;46188;52.324;8.032;2023-09-07T09:25:59;101035.75;;;25.34;69.71
60345;BME280;46188;52.324;8.032;2023-09-07T09:28:25;101031.13;;;25.58;69.38
60345;BME280;46188;52.324;8.032;2023-09-07T09:30:51;101034.13;;;25.73;68.92
60345;BME280;46188;52.324;8.032;2023-09-07T09:33:19;101027.97;;;25.90;67.77
60345;BME280;46188;52.324;8.032;2023-09-07T09:35:44;101030.69;;;25.90;67.63
60345;BME280;46188;52.324;8.032;2023-09-07T09:38:12;101031.78;;;25.86;67.28
60345;BME280;46188;52.324;8.032;2023-09-07T09:40:38;101031.78;;;25.86;68.79
60345;BME280;46188;52.324;8.032;2023-09-07T09:43:04;101027.03;;;25.91;66.91
60345;BME280;46188;52.324;8.032;2023-09-07T09:45:31;101028.28;;;26.04;64.91
60345;BME280;46188;52.324;8.032;2023-09-07T09:47:58;101018.66;;;26.18;64.62
60345;BME280;46188;52.324;8.032;2023-09-07T09:50:25;101013.28;;;26.18;64.05
60345;BME280;46188;52.324;8.032;2023-09-07T09:52:52;101014.53;;;26.29;62.88
60345;BME280;46188;52.324;8.032;2023-09-07T09:55:18;101012.06;;;26.44;61.87
60345;BME280;46188;52.324;8.032;2023-09-07T09:57:43;101010.53;;;26.57;61.60
60345;BME280;46188;52.324;8.032;2023-09-07T10:00:09;101004.81;;;26.65;61.30
60345;BME280;46188;52.324;8.032;2023-09-07T10:02:48;101011.16;;;26.83;60.96
60345;BME280;46188;52.324;8.032;2023-09-07T10:05:15;101002.66;;;26.91;60.74
60345;BME280;46188;52.324;8.032;2023-09-07T10:07:45;101010.47;;;26.97;60.37
60345;BME280;46188;52.324;8.032;2023-09-07T10:10:13;101003.66;;;27.07;60.01
60345;BME280;46188;52.324;8.032;2023-09-07T10:13:00;101004.78;;;27.03;59.24
60345;BME280;46188;52.324;8.032;2023-09-07T10:15:26;101000.84;;;27.28;59.42
60345;BME280;46188;52.324;8.032;2023-09-07T10:18:15;101002.94;;;27.40;59.56
60345;BME280;46188;52.324;8.032;2023-09-07T10:20:55;100993.72;;;27.61;58.60
60345;BME280;46188;52.324;8.032;2023-09-07T10:23:22;100996.03;;;27.69;57.84
60345;BME280;46188;52.324;8.032;2023-09-07T10:25:52;100991.00;;;27.79;57.70
60345;BME280;46188;52.324;8.032;2023-09-07T10:28:22;100992.28;;;27.89;57.28
60345;BME280;46188;52.324;8.032;2023-09-07T10:31:04;100994.69;;;27.95;57.56
60345;BME280;46188;52.324;8.032;2023-09-07T10:33:31;100995.84;;;27.90;58.00
60345;BME280;46188;52.324;8.032;2023-09-07T10:35:57;100991.72;;;27.83;57.92
60345;BME280;46188;52.324;8.032;2023-09-07T10:38:23;100996.09;;;28.03;56.72
60345;BME280;46188;52.324;8.032;2023-09-07T10:40:55;100985.47;;;28.15;55.60
60345;BME280;46188;52.324;8.032;2023-09-07T10:43:23;100981.78;;;28.16;55.31
60345;BME280;46188;52.324;8.032;2023-09-07T10:45:48;100976.66;;;28.12;55.17
60345;BME280;46188;52.324;8.032;2023-09-07T10:48:13;100978.38;;;28.13;54.41
60345;BME280;46188;52.324;8.032;2023-09-07T10:50:43;100975.66;;;28.13;53.91
60345;BME280;46188;52.324;8.032;2023-09-07T10:53:09;100972.78;;;28.16;54.10
60345;BME280;46188;52.324;8.032;2023-09-07T10:55:38;100978.44;;;28.29;53.93
60345;BME280;46188;52.324;8.032;2023-09-07T10:58:08;100973.38;;;28.39;53.74
60345;BME280;46188;52.324;8.032;2023-09-07T11:00:34;100972.38;;;28.40;53.26
60345;BME280;46188;52.324;8.032;2023-09-07T11:03:06;100964.78;;;28.46;51.76
60345;BME280;46188;52.324;8.032;2023-09-07T11:05:32;100952.38;;;28.42;51.83
60345;BME280;46188;52.324;8.032;2023-09-07T11:08:02;100958.41;;;28.47;50.74
60345;BME280;46188;52.324;8.032;2023-09-07T11:10:27;100959.59;;;28.59;51.30
60345;BME280;46188;52.324;8.032;2023-09-07T11:12:53;100950.63;;;28.73;50.82
60345;BME280;46188;52.324;8.032;2023-09-07T11:15:19;100952.06;;;28.80;50.42
60345;BME280;46188;52.324;8.032;2023-09-07T11:17:44;100950.63;;;28.89;49.78
60345;BME280;46188;52.324;8.032;2023-09-07T11:20:10;100952.41;;;28.90;49.63
60345;BME280;46188;52.324;8.032;2023-09-07T11:22:35;100952.56;;;28.87;49.16
60345;BME280;46188;52.324;8.032;2023-09-07T11:25:04;100941.81;;;28.85;49.03
60345;BME280;46188;52.324;8.032;2023-09-07T11:27:30;100945.53;;;28.99;48.74
60345;BME280;46188;52.324;8.032;2023-09-07T11:29:56;100939.09;;;29.01;48.53
60345;BME280;46188;52.324;8.032;2023-09-07T11:32:22;100939.84;;;29.03;48.56
60345;BME280;46188;52.324;8.032;2023-09-07T11:34:52;100936.56;;;29.13;49.04
60345;BME280;46188;52.324;8.032;2023-09-07T11:37:24;100938.44;;;29.28;48.74
60345;BME280;46188;52.324;8.032;2023-09-07T11:39:50;100938.44;;;29.28;49.31
60345;BME280;46188;52.324;8.032;2023-09-07T11:42:15;100937.16;;;29.34;48.53
60345;BME280;46188;52.324;8.032;2023-09-07T11:44:41;100941.38;;;29.39;48.66
60345;BME280;46188;52.324;8.032;2023-09-07T11:47:06;100934.47;;;29.34;48.92
60345;BME280;46188;52.324;8.032;2023-09-07T11:49:32;100935.22;;;29.36;48.38
60345;BME280;46188;52.324;8.032;2023-09-07T11:51:57;100935.63;;;29.44;48.10
60345;BME280;46188;52.324;8.032;2023-09-07T11:54:22;100931.78;;;29.48;47.81
60345;BME280;46188;52.324;8.032;2023-09-07T11:56:48;100925.66;;;29.44;47.75
60345;BME280;46188;52.324;8.032;2023-09-07T11:59:13;100926.44;;;29.47;48.10
60345;BME280;46188;52.324;8.032;2023-09-07T12:01:39;100912.91;;;29.61;48.40
60345;BME280;46188;52.324;8.032;2023-09-07T12:04:05;100913.66;;;29.63;47.46
60345;BME280;46188;52.324;8.032;2023-09-07T12:06:31;100910.44;;;29.71;47.53
60345;BME280;46188;52.324;8.032;2023-09-07T12:09:00;100919.75;;;29.83;46.65
60345;BME280;46188;52.324;8.032;2023-09-07T12:11:26;100914.25;;;29.68;46.97
60345;BME280;46188;52.324;8.032;2023-09-07T12:13:52;100911.16;;;29.74;46.97
60345;BME280;46188;52.324;8.032;2023-09-07T12:16:17;100904.81;;;29.74;47.40
60345;BME280;46188;52.324;8.032;2023-09-07T12:18:42;100902.63;;;29.66;47.01
60345;BME280;46188;52.324;8.032;2023-09-07T12:21:07;100906.44;;;29.78;46.33
60345;BME280;46188;52.324;8.032;2023-09-07T12:23:33;100902.84;;;29.92;46.15
60345;BME280;46188;52.324;8.032;2023-09-07T12:25:58;100896.72;;;29.88;46.17
60345;BME280;46188;52.324;8.032;2023-09-07T12:28:24;100903.03;;;29.89;45.57
60345;BME280;46188;52.324;8.032;2023-09-07T12:30:50;100903.59;;;29.94;46.00
60345;BME280;46188;52.324;8.032;2023-09-07T12:33:15;100903.72;;;29.92;45.83
60345;BME280;46188;52.324;8.032;2023-09-07T12:35:40;100907.31;;;30.07;45.42
60345;BME280;46188;52.324;8.032;2023-09-07T12:38:05;100901.50;;;29.99;45.87
60345;BME280;46188;52.324;8.032;2023-09-07T12:40:32;100896.63;;;29.90;45.84